Lamotte, Illinois
Current Conditions -  °F | °C
As of 8:15 AM on Thursday 29 Jan 2015 (Local Time) from KRSV Reporting Station
Broken Clouds Broken Clouds  
Wind Chill: 35°   Ceiling: 2600
Heat Index: 44°   Visibility: 10mi
Dew Point: 37°   Wind: 21mph
Humidity: 78%   Direction: 290°WNW
Pressure: 29.89"   Gusts: 29mph
Location:  39.0088°N, 87.6216°W
Report Text: KRSV 291415Z AUTO 29018G25KT 10SM BKN026 06/03 A2989 RMK AO2 T00640028
Loading
Personal Weather Stations






























Interactive Weather Map New forecast layout! Learn more

10-Day Weather Forecast

Advertisements
Track Severe Weather on mobile